Time;durP1;ratioP1;P1;durP2;ratioP2;P2;SDS_P1;SDS_P2;PMS_P1;PMS_P2;Temp;Humidity;BMP_temperature;BMP_pressure;BME280_temperature;BME280_humidity;BME280_pressure;Samples;Min_cycle;Max_cycle;Signal;HPM_P1;HPM_P2
2021/04/26 00:07:23;;;;;;;7.30;2.80;;;6.60;99.90;;;;;;6712715;88;20377;-77
2021/04/26 00:17:23;;;;;;;7.87;2.57;;;6.50;99.90;;;;;;6712212;88;20490;-75
2021/04/26 00:27:24;;;;;;;9.27;2.40;;;6.30;99.90;;;;;;6712757;88;20589;-77
2021/04/26 00:37:24;;;;;;;6.82;2.90;;;6.10;99.90;;;;;;6712203;88;20267;-77
2021/04/26 00:47:25;;;;;;;8.52;2.55;;;6.00;99.90;;;;;;6713357;88;20201;-76
2021/04/26 00:57:26;;;;;;;7.75;2.72;;;5.90;99.90;;;;;;6713441;88;20346;-77
2021/04/26 01:07:29;;;;;;;6.97;2.55;;;5.70;99.90;;;;;;6713419;88;20309;-76
2021/04/26 01:17:33;;;;;;;6.62;2.83;;;5.50;99.90;;;;;;6713187;88;20190;-76
2021/04/26 01:27:46;;;;;;;6.03;2.67;;;5.30;99.90;;;;;;6715289;88;20304;-77
2021/04/26 01:37:50;;;;;;;6.07;2.50;;;5.20;99.90;;;;;;6712388;88;20954;-77
2021/04/26 01:47:54;;;;;;;6.62;2.75;;;5.30;99.90;;;;;;6726322;77;20322;-74
2021/04/26 01:57:57;;;;;;;5.30;2.50;;;5.00;99.90;;;;;;6748891;87;20192;-74
2021/04/26 02:07:59;;;;;;;7.30;2.80;;;4.80;99.90;;;;;;6745246;87;20389;-75
2021/04/26 02:18:01;;;;;;;8.10;2.78;;;4.70;99.90;;;;;;6744919;87;20243;-75
2021/04/26 02:28:02;;;;;;;6.85;2.67;;;4.50;99.90;;;;;;6747533;87;20209;-75
2021/04/26 02:38:08;;;;;;;6.32;3.10;;;4.40;99.90;;;;;;6750928;87;20316;-75
2021/04/26 02:48:09;;;;;;;7.85;3.03;;;4.30;99.90;;;;;;6745385;87;20632;-75
2021/04/26 02:58:11;;;;;;;7.57;2.92;;;4.30;99.90;;;;;;6744078;87;20205;-75
2021/04/26 03:08:11;;;;;;;7.22;3.33;;;4.30;99.90;;;;;;6738571;87;20196;-74
2021/04/26 03:18:14;;;;;;;7.60;3.00;;;4.10;99.90;;;;;;6744909;87;20274;-75
2021/04/26 03:28:17;;;;;;;5.95;2.90;;;3.90;99.90;;;;;;6745661;87;20200;-74
2021/04/26 03:38:18;;;;;;;7.03;2.97;;;3.90;99.90;;;;;;6748501;88;20341;-74
2021/04/26 03:48:18;;;;;;;6.10;2.80;;;3.40;99.90;;;;;;6743879;87;20191;-75
2021/04/26 03:58:19;;;;;;;7.60;3.12;;;3.20;99.90;;;;;;6750736;87;20489;-74
2021/04/26 04:08:21;;;;;;;10.13;3.00;;;3.10;99.90;;;;;;6751526;87;20294;-74
2021/04/26 04:18:22;;;;;;;4.75;2.55;;;3.10;99.90;;;;;;6751852;87;20615;-74
2021/04/26 04:28:22;;;;;;;6.82;3.10;;;3.10;99.90;;;;;;6747947;87;20204;-75
2021/04/26 04:38:25;;;;;;;7.43;3.78;;;3.00;99.90;;;;;;6749996;87;20197;-75
2021/04/26 04:48:25;;;;;;;8.35;3.37;;;3.20;99.90;;;;;;6745467;88;20527;-75
2021/04/26 04:58:26;;;;;;;5.78;3.20;;;3.20;99.90;;;;;;6742594;87;20243;-76
2021/04/26 05:08:26;;;;;;;7.78;3.50;;;3.10;99.90;;;;;;6741348;87;20617;-76
2021/04/26 05:18:27;;;;;;;11.15;3.90;;;3.10;99.90;;;;;;6753667;87;20180;-76
2021/04/26 05:28:27;;;;;;;8.85;3.70;;;3.10;99.90;;;;;;6758588;87;20244;-76
2021/04/26 05:38:28;;;;;;;10.20;3.67;;;3.20;99.90;;;;;;6755238;87;20701;-76
2021/04/26 05:48:29;;;;;;;6.45;3.00;;;3.70;99.90;;;;;;6761187;87;20235;-75
2021/04/26 05:58:30;;;;;;;6.68;2.60;;;4.90;99.90;;;;;;6760284;87;20163;-76
2021/04/26 06:08:30;;;;;;;4.93;2.47;;;5.90;99.90;;;;;;6755984;87;20197;-76
2021/04/26 06:18:31;;;;;;;8.68;2.60;;;6.40;99.90;;;;;;6744190;87;20793;-75
2021/04/26 06:28:31;;;;;;;4.75;2.10;;;7.00;99.90;;;;;;6741960;87;20206;-75
2021/04/26 06:38:32;;;;;;;8.00;1.80;;;7.90;99.90;;;;;;6738729;87;20310;-75
2021/04/26 06:48:33;;;;;;;5.55;2.30;;;7.60;99.90;;;;;;6746846;87;20518;-74
2021/04/26 06:58:33;;;;;;;9.00;2.30;;;8.30;99.90;;;;;;6756597;87;20228;-75
2021/04/26 07:08:34;;;;;;;5.30;1.90;;;8.90;98.20;;;;;;6739843;87;20306;-75
2021/04/26 07:18:34;;;;;;;12.65;2.10;;;9.90;95.60;;;;;;6740232;87;20836;-74
2021/04/26 07:28:35;;;;;;;5.18;1.55;;;10.20;92.00;;;;;;6741140;87;20323;-75
2021/04/26 07:38:35;;;;;;;9.80;1.83;;;10.20;90.80;;;;;;6759395;87;20184;-77
2021/04/26 07:48:38;;;;;;;6.37;1.45;;;10.60;89.60;;;;;;6756214;87;20192;-78
2021/04/26 07:58:38;;;;;;;5.53;1.20;;;11.40;86.50;;;;;;6749980;87;20222;-77
2021/04/26 08:08:39;;;;;;;4.65;1.42;;;12.70;78.70;;;;;;6756147;87;20237;-77
2021/04/26 08:18:39;;;;;;;9.57;1.60;;;12.50;73.50;;;;;;6749092;87;20242;-77
2021/04/26 08:28:40;;;;;;;5.07;1.30;;;13.60;72.70;;;;;;6749139;87;20600;-76
2021/04/26 08:38:41;;;;;;;5.40;1.20;;;13.90;69.80;;;;;;6754599;87;20269;-76
2021/04/26 08:48:41;;;;;;;5.90;1.10;;;14.00;65.50;;;;;;6750316;76;20250;-79
2021/04/26 08:58:42;;;;;;;5.50;1.08;;;14.00;60.40;;;;;;6740583;88;20667;-77
2021/04/26 09:08:50;;;;;;;4.53;1.10;;;15.40;56.50;;;;;;6739498;88;20189;-78
2021/04/26 09:19:00;;;;;;;3.50;1.20;;;16.40;55.20;;;;;;6735548;88;20221;-77
2021/04/26 09:29:12;;;;;;;2.90;1.33;;;15.10;53.50;;;;;;6737868;88;20264;-77
2021/04/26 09:39:13;;;;;;;3.45;1.40;;;15.50;54.60;;;;;;6741244;88;20269;-76
2021/04/26 09:49:21;;;;;;;4.65;1.20;;;15.20;54.00;;;;;;6745947;88;20356;-78
2021/04/26 09:59:24;;;;;;;2.15;1.33;;;17.40;53.40;;;;;;6741714;88;20236;-77
2021/04/26 10:09:25;;;;;;;5.78;1.35;;;18.70;51.40;;;;;;6740063;88;20310;-77
2021/04/26 10:19:50;;;;;;;5.07;1.12;;;17.90;50.70;;;;;;6740297;88;20758;-77
2021/04/26 10:30:19;;;;;;;3.55;1.00;;;19.30;48.00;;;;;;6735739;88;20188;-77
2021/04/26 10:40:23;;;;;;;6.12;1.20;;;19.50;47.20;;;;;;6723919;88;20272;-76
2021/04/26 10:50:23;;;;;;;5.37;1.33;;;18.60;46.90;;;;;;6737366;88;20259;-76
2021/04/26 11:00:26;;;;;;;2.10;0.98;;;19.10;48.10;;;;;;6732786;88;20180;-74
2021/04/26 11:10:43;;;;;;;2.08;0.90;;;18.90;48.00;;;;;;6734491;88;20224;-76
2021/04/26 11:20:43;;;;;;;2.90;1.35;;;17.80;48.80;;;;;;6738159;88;20205;-76
2021/04/26 11:30:50;;;;;;;4.78;1.00;;;17.90;46.70;;;;;;6735275;88;20185;-76
2021/04/26 11:40:52;;;;;;;5.18;1.10;;;18.50;46.10;;;;;;6736409;88;20307;-76
2021/04/26 11:50:54;;;;;;;4.47;1.10;;;21.20;41.90;;;;;;6732822;88;20197;-77
2021/04/26 12:01:08;;;;;;;8.10;1.20;;;22.20;40.90;;;;;;6740016;88;20185;-76
2021/04/26 12:11:35;;;;;;;2.17;0.90;;;19.30;40.30;;;;;;6723556;88;20262;-76
2021/04/26 12:21:36;;;;;;;3.08;1.00;;;19.30;41.50;;;;;;6730503;88;20262;-76
2021/04/26 12:31:39;;;;;;;3.03;1.07;;;20.90;41.50;;;;;;6738633;88;20352;-76
2021/04/26 12:41:40;;;;;;;2.40;1.25;;;21.30;41.10;;;;;;6734505;88;20559;-76
2021/04/26 12:51:41;;;;;;;2.80;1.30;;;22.20;40.40;;;;;;6739368;88;20176;-76
2021/04/26 13:01:41;;;;;;;3.62;1.20;;;22.30;39.40;;;;;;6739497;88;20346;-76
2021/04/26 13:11:49;;;;;;;2.83;1.45;;;22.40;41.20;;;;;;6738869;88;20181;-77
2021/04/26 13:21:50;;;;;;;1.77;1.17;;;23.00;39.50;;;;;;6738834;88;20217;-77
2021/04/26 13:31:54;;;;;;;2.57;1.30;;;22.60;39.40;;;;;;6737316;88;20295;-77
2021/04/26 13:41:55;;;;;;;5.20;1.48;;;23.40;37.70;;;;;;6738592;88;20329;-77
2021/04/26 13:51:56;;;;;;;2.10;1.20;;;23.30;36.10;;;;;;6741052;88;20188;-77
2021/04/26 14:01:57;;;;;;;2.60;1.30;;;22.10;38.60;;;;;;6741119;88;20640;-77
2021/04/26 14:11:57;;;;;;;2.37;1.00;;;21.50;38.40;;;;;;6739429;88;20205;-77
2021/04/26 14:21:58;;;;;;;3.10;1.27;;;22.90;37.00;;;;;;6736960;88;20195;-76
2021/04/26 14:31:58;;;;;;;6.12;1.00;;;22.40;37.80;;;;;;6740643;88;20189;-76
2021/04/26 14:42:00;;;;;;;3.80;1.17;;;22.50;36.80;;;;;;6744785;88;20288;-78
2021/04/26 14:52:00;;;;;;;4.45;1.17;;;22.70;37.10;;;;;;6738641;88;20197;-76
2021/04/26 15:02:01;;;;;;;4.28;1.20;;;22.50;36.80;;;;;;6739100;88;20200;-77
2021/04/26 15:12:02;;;;;;;3.17;1.43;;;21.60;36.30;;;;;;6737195;88;20204;-76
2021/04/26 15:22:03;;;;;;;4.28;1.23;;;22.00;37.20;;;;;;6736916;88;20502;-77
2021/04/26 15:32:05;;;;;;;6.93;1.10;;;21.60;37.20;;;;;;6736565;88;20330;-76
2021/04/26 15:42:09;;;;;;;2.72;1.15;;;21.20;36.50;;;;;;6736837;88;20208;-75
2021/04/26 15:52:10;;;;;;;2.87;1.40;;;21.20;38.20;;;;;;6735748;88;20229;-76
2021/04/26 16:02:11;;;;;;;2.27;1.10;;;20.70;37.70;;;;;;6734090;88;20663;-75
2021/04/26 16:12:12;;;;;;;4.03;1.80;;;21.20;38.60;;;;;;6734425;88;20207;-76
2021/04/26 16:22:13;;;;;;;6.90;1.52;;;20.40;39.50;;;;;;6735607;88;20192;-76
2021/04/26 16:32:14;;;;;;;3.67;1.55;;;20.30;40.10;;;;;;6735958;88;20210;-77
2021/04/26 16:42:15;;;;;;;3.70;1.40;;;20.00;39.70;;;;;;6735322;88;20596;-75
2021/04/26 16:52:16;;;;;;;3.53;1.45;;;19.60;40.90;;;;;;6736061;88;20490;-77
2021/04/26 17:02:16;;;;;;;4.55;1.80;;;19.10;41.30;;;;;;6734204;88;20284;-75
2021/04/26 17:12:17;;;;;;;2.50;1.33;;;18.40;42.20;;;;;;6732304;88;20197;-75
2021/04/26 17:22:18;;;;;;;3.27;1.60;;;18.60;42.50;;;;;;6731227;88;20645;-74
2021/04/26 17:32:19;;;;;;;2.97;1.52;;;18.80;41.80;;;;;;6715793;88;20571;-76
2021/04/26 17:42:20;;;;;;;5.85;1.45;;;19.90;40.90;;;;;;6719100;88;21011;-75
2021/04/26 17:52:21;;;;;;;5.75;1.50;;;18.80;41.50;;;;;;6720002;88;20327;-76
2021/04/26 18:02:22;;;;;;;3.05;1.45;;;17.20;44.50;;;;;;6721866;88;20204;-76
2021/04/26 18:12:22;;;;;;;5.32;2.20;;;16.60;44.30;;;;;;6718770;88;20904;-75
2021/04/26 18:22:23;;;;;;;4.65;2.90;;;15.90;47.80;;;;;;6723076;88;20318;-75
2021/04/26 18:32:24;;;;;;;4.40;2.62;;;15.10;51.10;;;;;;6723288;88;20177;-76
2021/04/26 18:42:24;;;;;;;5.30;2.40;;;14.60;52.10;;;;;;6721163;88;20588;-75
2021/04/26 18:52:27;;;;;;;9.35;2.90;;;14.30;52.40;;;;;;6720718;88;20196;-76
2021/04/26 19:02:27;;;;;;;7.45;2.85;;;13.90;52.60;;;;;;6723296;88;20210;-75
2021/04/26 19:12:32;;;;;;;4.03;2.58;;;13.50;53.20;;;;;;6725076;88;20213;-75
2021/04/26 19:22:33;;;;;;;5.70;2.33;;;13.30;53.70;;;;;;6725960;88;20180;-76
2021/04/26 19:32:34;;;;;;;6.75;2.75;;;13.00;53.90;;;;;;6727917;88;20201;-76
2021/04/26 19:42:34;;;;;;;5.53;2.20;;;12.80;54.60;;;;;;6723628;88;20204;-77
2021/04/26 19:52:35;;;;;;;4.80;2.70;;;12.60;55.20;;;;;;6722488;88;20216;-76
2021/04/26 20:02:35;;;;;;;4.93;2.87;;;12.30;56.00;;;;;;6727582;88;20196;-75
2021/04/26 20:12:36;;;;;;;5.22;2.47;;;12.20;56.80;;;;;;6726237;88;20217;-77
2021/04/26 20:22:37;;;;;;;6.43;2.50;;;11.90;58.00;;;;;;6726389;88;20180;-77
2021/04/26 20:32:39;;;;;;;3.95;2.50;;;11.50;58.80;;;;;;6724576;88;20204;-76
2021/04/26 20:42:40;;;;;;;5.97;2.65;;;11.10;59.60;;;;;;6719882;88;20195;-76
2021/04/26 20:52:40;;;;;;;5.18;2.70;;;10.80;61.10;;;;;;6719678;88;20668;-75
2021/04/26 21:02:41;;;;;;;4.62;2.40;;;10.60;61.60;;;;;;6729051;88;20218;-75
2021/04/26 21:12:42;;;;;;;6.12;2.50;;;10.40;62.20;;;;;;6723104;88;20200;-76
2021/04/26 21:22:43;;;;;;;5.57;2.40;;;10.30;62.40;;;;;;6722230;88;20737;-76
2021/04/26 21:32:44;;;;;;;4.95;2.45;;;10.10;62.70;;;;;;6722638;88;20240;-76
2021/04/26 21:42:44;;;;;;;7.03;2.30;;;10.00;63.70;;;;;;6720276;88;20200;-76
2021/04/26 21:52:45;;;;;;;5.03;2.20;;;9.80;64.20;;;;;;6720731;88;20219;-75
2021/04/26 22:02:45;;;;;;;4.50;1.95;;;9.70;64.00;;;;;;6720259;88;20250;-75
2021/04/26 22:12:46;;;;;;;4.05;2.10;;;9.60;64.90;;;;;;6694910;77;20276;-75
2021/04/26 22:22:49;;;;;;;4.50;1.85;;;9.40;66.10;;;;;;6659849;88;20195;-75
2021/04/26 22:32:49;;;;;;;4.40;2.15;;;9.30;66.30;;;;;;6634898;89;20266;-77
2021/04/26 22:42:50;;;;;;;4.75;2.20;;;9.10;68.10;;;;;;6631762;89;20181;-77
2021/04/26 22:52:51;;;;;;;4.20;1.75;;;9.10;68.50;;;;;;6644963;88;20222;-76
2021/04/26 23:02:52;;;;;;;3.22;1.85;;;9.00;68.90;;;;;;6647403;89;20217;-77
2021/04/26 23:12:53;;;;;;;4.45;2.00;;;8.70;71.10;;;;;;6634958;89;20196;-75
2021/04/26 23:22:54;;;;;;;3.60;1.90;;;8.50;74.20;;;;;;6645208;89;20571;-75
2021/04/26 23:32:55;;;;;;;3.58;1.60;;;8.50;73.60;;;;;;6629458;88;20791;-76
2021/04/26 23:42:55;;;;;;;3.92;2.10;;;8.80;69.90;;;;;;6631270;88;20285;-76
2021/04/26 23:52:56;;;;;;;4.20;1.87;;;8.60;71.10;;;;;;6632207;88;20237;-74
